createdAt,value
2017-11-04T00:00:35.249Z,7.37
2017-11-04T00:01:37.540Z,7.47
2017-11-04T00:02:38.964Z,7.49
2017-11-04T00:03:41.224Z,7.45
2017-11-04T00:04:43.441Z,7.49
2017-11-04T00:05:45.501Z,7.37
2017-11-04T00:06:47.797Z,7.45
2017-11-04T00:07:49.776Z,7.41
2017-11-04T00:08:51.633Z,7.41
2017-11-04T00:09:53.617Z,7.59
2017-11-04T00:10:55.957Z,7.59
2017-11-04T00:11:58.160Z,7.52
2017-11-04T00:13:00.281Z,7.41
2017-11-04T00:14:02.183Z,7.78
2017-11-04T00:15:05.972Z,7.87
2017-11-04T00:16:07.994Z,7.85
2017-11-04T00:17:10.256Z,7.72
2017-11-04T00:18:12.498Z,7.60
2017-11-04T00:19:14.767Z,7.50
2017-11-04T00:20:16.835Z,7.58
2017-11-04T00:21:19.258Z,7.47
2017-11-04T00:22:21.536Z,7.59
2017-11-04T00:23:23.105Z,7.66
2017-11-04T00:24:25.277Z,7.59
2017-11-04T00:25:27.314Z,7.59
2017-11-04T00:26:29.287Z,7.63
2017-11-04T00:27:31.700Z,7.74
2017-11-04T00:28:34.044Z,7.77
2017-11-04T00:29:35.467Z,7.78
2017-11-04T00:30:37.850Z,7.79
2017-11-04T00:31:39.279Z,7.74
2017-11-04T00:32:41.519Z,7.56
2017-11-04T00:33:43.734Z,7.62
2017-11-04T00:34:45.856Z,7.62
2017-11-04T00:35:47.870Z,7.59
2017-11-04T00:36:49.818Z,7.66
2017-11-04T00:37:52.217Z,7.75
2017-11-04T00:38:54.369Z,7.72
2017-11-04T00:39:56.561Z,7.87
2017-11-04T00:40:58.569Z,7.82
2017-11-04T00:42:01.044Z,7.72
2017-11-04T00:43:02.507Z,7.67
2017-11-04T00:44:04.878Z,7.77
2017-11-04T00:45:06.896Z,7.81
2017-11-04T00:46:09.248Z,7.60
2017-11-04T00:47:11.445Z,7.60
2017-11-04T00:48:13.382Z,7.67
2017-11-04T00:49:15.351Z,7.72
2017-11-04T00:50:17.568Z,7.71
2017-11-04T00:51:19.852Z,7.67
2017-11-04T00:52:22.550Z,7.71
2017-11-04T00:53:23.977Z,7.84
2017-11-04T00:54:26.059Z,7.71
2017-11-04T00:55:28.462Z,7.77
2017-11-04T00:56:30.636Z,7.82
2017-11-04T00:57:32.740Z,7.75
2017-11-04T00:58:35.303Z,7.72
2017-11-04T00:59:37.902Z,7.59
2017-11-04T01:00:39.858Z,7.60
2017-11-04T01:01:42.229Z,7.69
2017-11-04T01:02:44.245Z,7.67
2017-11-04T01:03:46.208Z,7.66
2017-11-04T01:04:48.611Z,7.58
2017-11-04T01:05:50.899Z,7.55
2017-11-04T01:06:53.087Z,7.55
2017-11-04T01:07:54.509Z,7.53
2017-11-04T01:08:56.899Z,7.56
2017-11-04T01:09:59.228Z,7.63
2017-11-04T01:11:01.385Z,7.63
2017-11-04T01:12:03.883Z,7.78
2017-11-04T01:13:05.877Z,7.60
2017-11-04T01:14:07.891Z,7.55
2017-11-04T01:15:09.887Z,7.56
2017-11-04T01:16:12.282Z,7.59
2017-11-04T01:17:13.711Z,7.59
2017-11-04T01:18:16.103Z,7.58
2017-11-04T01:19:18.332Z,7.55
2017-11-04T01:20:20.592Z,7.22
2017-11-04T01:21:22.009Z,7.20
2017-11-04T01:22:24.072Z,7.24
2017-11-04T01:23:26.093Z,7.41
2017-11-04T01:24:28.061Z,7.62
2017-11-04T01:25:30.361Z,7.77
2017-11-04T01:26:32.610Z,7.77
2017-11-04T01:27:34.691Z,7.53
2017-11-04T01:28:36.829Z,7.59
2017-11-04T01:29:38.884Z,7.59
2017-11-04T01:30:41.105Z,7.74
2017-11-04T01:31:43.364Z,7.63
2017-11-04T01:32:45.577Z,7.58
2017-11-04T01:33:47.600Z,7.37
2017-11-04T01:34:49.594Z,7.56
2017-11-04T01:35:51.891Z,7.59
2017-11-04T01:36:54.083Z,7.69
2017-11-04T01:37:55.496Z,7.56
2017-11-04T01:38:57.571Z,7.60
2017-11-04T01:39:59.512Z,7.74
2017-11-04T01:41:01.602Z,7.75
2017-11-04T01:42:03.634Z,7.74
2017-11-04T01:43:06.017Z,7.77
2017-11-04T01:44:08.235Z,7.69
2017-11-04T01:45:10.298Z,7.78
2017-11-04T01:46:12.307Z,7.67
2017-11-04T01:47:14.294Z,7.74
2017-11-04T01:48:16.607Z,7.63
2017-11-04T01:49:18.770Z,7.72
2017-11-04T01:50:20.789Z,7.75
2017-11-04T01:51:22.736Z,7.77
2017-11-04T01:52:25.145Z,7.63
2017-11-04T01:53:27.457Z,7.60
2017-11-04T01:54:28.873Z,7.58
2017-11-04T01:55:30.838Z,7.63
2017-11-04T01:56:33.160Z,7.45
2017-11-04T01:57:35.465Z,7.31
2017-11-04T01:58:36.879Z,7.45
2017-11-04T01:59:39.228Z,7.52
2017-11-04T02:00:41.522Z,7.42
2017-11-04T02:01:42.939Z,7.37
2017-11-04T02:02:45.241Z,7.40
2017-11-04T02:03:47.463Z,7.37
2017-11-04T02:04:49.639Z,7.19
2017-11-04T02:05:51.067Z,7.07
2017-11-04T02:06:52.482Z,7.08
2017-11-04T02:07:53.893Z,7.17
2017-11-04T02:08:55.317Z,7.41
2017-11-04T02:09:56.722Z,7.26
2017-11-04T02:10:58.143Z,7.15
2017-11-04T02:11:59.561Z,7.17
2017-11-04T02:13:01.008Z,7.32
2017-11-04T02:14:02.405Z,7.44
2017-11-04T02:15:03.856Z,7.42
2017-11-04T02:16:05.275Z,7.38
2017-11-04T02:17:06.691Z,7.27
2017-11-04T02:18:08.122Z,7.50
2017-11-04T02:19:09.535Z,7.31
2017-11-04T02:20:10.950Z,7.27
2017-11-04T02:21:12.363Z,7.19
2017-11-04T02:22:13.780Z,7.22
2017-11-04T02:23:15.209Z,7.16
2017-11-04T02:24:16.623Z,7.13
2017-11-04T02:25:18.033Z,7.32
2017-11-04T02:26:19.446Z,7.29
2017-11-04T02:27:20.864Z,7.32
2017-11-04T02:28:22.274Z,7.42
2017-11-04T02:29:23.688Z,7.53
2017-11-04T02:30:25.092Z,7.53
2017-11-04T02:31:26.504Z,7.55
2017-11-04T02:32:27.916Z,7.37
2017-11-04T02:33:29.332Z,7.29
2017-11-04T02:34:30.746Z,7.32
2017-11-04T02:35:32.171Z,7.32
2017-11-04T02:36:33.587Z,7.41
2017-11-04T02:37:35.116Z,7.49
2017-11-04T02:38:36.522Z,7.41
2017-11-04T02:39:37.953Z,7.58
2017-11-04T02:40:39.385Z,7.77
2017-11-04T02:41:40.784Z,7.74
2017-11-04T02:42:42.194Z,7.71
2017-11-04T02:43:43.598Z,7.60
2017-11-04T02:44:45.017Z,7.77
2017-11-04T02:45:46.426Z,7.94
2017-11-04T02:46:47.842Z,7.85
2017-11-04T02:47:49.255Z,7.85
2017-11-04T02:48:50.669Z,7.71
2017-11-04T02:49:52.092Z,7.75
2017-11-04T02:50:53.505Z,7.63
2017-11-04T02:51:54.917Z,7.63
2017-11-04T02:52:56.335Z,7.71
2017-11-04T02:53:57.747Z,7.63
2017-11-04T02:54:59.156Z,7.59
2017-11-04T02:56:00.564Z,7.52
2017-11-04T02:57:01.971Z,7.38
2017-11-04T02:58:03.423Z,7.52
2017-11-04T02:59:04.834Z,7.49
2017-11-04T03:00:06.255Z,7.20
2017-11-04T03:01:07.653Z,6.95
2017-11-04T03:02:09.066Z,7.05
2017-11-04T03:03:10.485Z,7.23
2017-11-04T03:04:11.891Z,7.41
2017-11-04T03:05:13.302Z,7.40
2017-11-04T03:06:14.740Z,7.32
2017-11-04T03:07:16.175Z,7.49
2017-11-04T03:08:17.582Z,7.42
2017-11-04T03:09:18.996Z,7.42
2017-11-04T03:10:20.411Z,7.53
2017-11-04T03:11:21.810Z,7.49
2017-11-04T03:12:23.220Z,7.38
2017-11-04T03:13:24.632Z,7.44
2017-11-04T03:14:26.075Z,7.40
2017-11-04T03:15:27.474Z,7.26
2017-11-04T03:16:28.882Z,7.20
2017-11-04T03:17:30.294Z,7.32
2017-11-04T03:18:31.771Z,7.34
2017-11-04T03:19:33.151Z,7.37
2017-11-04T03:20:34.565Z,7.53
2017-11-04T03:21:35.978Z,7.52
2017-11-04T03:22:37.388Z,7.37
2017-11-04T03:23:38.793Z,7.40
2017-11-04T03:24:40.206Z,7.45
2017-11-04T03:25:41.622Z,7.60
2017-11-04T03:26:43.040Z,7.62
2017-11-04T03:27:44.452Z,7.56
2017-11-04T03:28:45.867Z,7.45
2017-11-04T03:29:47.336Z,7.66
2017-11-04T03:30:48.748Z,7.41
2017-11-04T03:31:50.169Z,7.45
2017-11-04T03:32:51.596Z,7.49
2017-11-04T03:33:53.006Z,7.32
2017-11-04T03:34:54.421Z,7.42
2017-11-04T03:35:55.829Z,7.45
2017-11-04T03:36:57.247Z,7.45
2017-11-04T03:37:58.668Z,7.58
2017-11-04T03:39:00.145Z,7.49
2017-11-04T03:40:01.555Z,7.31
2017-11-04T03:41:02.975Z,7.37
2017-11-04T03:42:04.388Z,7.44
2017-11-04T03:43:05.804Z,7.42
2017-11-04T03:44:07.229Z,7.37
2017-11-04T03:45:08.642Z,7.37
2017-11-04T03:46:10.047Z,7.45
2017-11-04T03:47:11.454Z,7.56
2017-11-04T03:48:12.862Z,7.44
2017-11-04T03:49:14.276Z,7.34
2017-11-04T03:50:15.687Z,7.49
2017-11-04T03:51:17.091Z,7.38
2017-11-04T03:52:18.503Z,7.52
2017-11-04T03:53:19.913Z,7.56
2017-11-04T03:54:21.316Z,7.41
2017-11-04T03:55:22.728Z,7.38
2017-11-04T03:56:24.144Z,7.31
2017-11-04T03:57:25.562Z,7.35
2017-11-04T03:58:26.971Z,7.38
2017-11-04T03:59:28.380Z,7.35
2017-11-04T04:00:29.792Z,7.37
2017-11-04T04:01:31.207Z,7.35
2017-11-04T04:02:32.619Z,7.24
2017-11-04T04:03:34.031Z,7.20
2017-11-04T04:04:35.447Z,7.32
2017-11-04T04:05:36.857Z,7.31
2017-11-04T04:06:38.266Z,7.40
2017-11-04T04:07:39.679Z,7.53
2017-11-04T04:08:41.163Z,7.50
2017-11-04T04:09:42.570Z,7.62
2017-11-04T04:10:43.985Z,7.66
2017-11-04T04:11:45.386Z,7.58
2017-11-04T04:12:46.799Z,7.49
2017-11-04T04:13:48.212Z,7.41
2017-11-04T04:14:49.635Z,7.44
2017-11-04T04:15:51.046Z,7.42
2017-11-04T04:16:52.457Z,7.67
2017-11-04T04:17:53.884Z,7.55
2017-11-04T04:18:55.319Z,7.55
2017-11-04T04:19:56.743Z,7.72
2017-11-04T04:20:58.249Z,7.77
2017-11-04T04:21:59.696Z,7.69
2017-11-04T04:23:01.104Z,7.74
2017-11-04T04:24:02.516Z,7.67
2017-11-04T04:25:03.927Z,7.60
2017-11-04T04:26:05.333Z,7.66
2017-11-04T04:27:06.742Z,7.60
2017-11-04T04:28:08.161Z,7.60
2017-11-04T04:29:09.570Z,7.44
2017-11-04T04:30:10.981Z,7.58
2017-11-04T04:31:12.427Z,7.58
2017-11-04T04:32:13.822Z,7.60
2017-11-04T04:33:15.237Z,7.53
2017-11-04T04:34:16.651Z,7.42
2017-11-04T04:35:18.159Z,7.44
2017-11-04T04:36:19.573Z,7.41
2017-11-04T04:37:20.988Z,7.59
2017-11-04T04:38:22.402Z,7.59
2017-11-04T04:39:23.809Z,7.62
2017-11-04T04:40:25.243Z,7.41
2017-11-04T04:41:26.652Z,7.50
2017-11-04T04:42:28.064Z,7.49
2017-11-04T04:43:29.475Z,7.60
2017-11-04T04:44:30.882Z,7.37
2017-11-04T04:45:32.300Z,7.66
2017-11-04T04:46:33.714Z,7.62
2017-11-04T04:47:35.126Z,7.77
2017-11-04T04:48:36.546Z,7.75
2017-11-04T04:49:37.959Z,7.47
2017-11-04T04:50:39.371Z,7.67
2017-11-04T04:51:40.785Z,7.85
2017-11-04T04:52:42.203Z,7.85
2017-11-04T04:53:43.614Z,7.92
2017-11-04T04:54:45.022Z,7.90
2017-11-04T04:55:46.427Z,7.82
2017-11-04T04:56:47.838Z,7.71
2017-11-04T04:57:49.251Z,7.59
2017-11-04T04:58:50.663Z,7.38
2017-11-04T04:59:52.072Z,7.22
2017-11-04T05:00:53.481Z,6.95
2017-11-04T05:01:54.939Z,6.94
2017-11-04T05:02:56.351Z,6.90
2017-11-04T05:03:57.764Z,6.81
2017-11-04T05:04:59.174Z,6.89
2017-11-04T05:06:00.586Z,6.89
2017-11-04T05:07:01.996Z,7.02
2017-11-04T05:08:03.411Z,6.89
2017-11-04T05:09:04.821Z,6.87
2017-11-04T05:10:06.229Z,6.91
2017-11-04T05:11:07.650Z,7.05
2017-11-04T05:12:09.063Z,7.05
2017-11-04T05:13:10.476Z,7.24
2017-11-04T05:14:11.891Z,7.32
2017-11-04T05:15:13.316Z,7.38
2017-11-04T05:16:14.728Z,7.47
2017-11-04T05:17:16.135Z,7.38
2017-11-04T05:18:17.550Z,7.49
2017-11-04T05:19:18.961Z,7.50
2017-11-04T05:20:20.376Z,7.71
2017-11-04T05:21:21.788Z,7.74
2017-11-04T05:22:23.286Z,7.78
2017-11-04T05:23:24.699Z,7.78
2017-11-04T05:24:26.112Z,7.77
2017-11-04T05:25:27.527Z,7.72
2017-11-04T05:26:28.949Z,7.77
2017-11-04T05:27:30.360Z,7.82
2017-11-04T05:28:31.773Z,7.87
2017-11-04T05:29:33.194Z,7.96
2017-11-04T05:30:34.603Z,7.84
2017-11-04T05:31:36.017Z,7.85
2017-11-04T05:32:37.432Z,7.81
2017-11-04T05:33:38.841Z,7.85
2017-11-04T05:34:40.255Z,7.75
2017-11-04T05:35:41.670Z,7.72
2017-11-04T05:36:43.084Z,7.75
2017-11-04T05:37:44.502Z,7.81
2017-11-04T05:38:45.917Z,7.60
2017-11-04T05:39:47.406Z,7.42
2017-11-04T05:40:48.826Z,7.59
2017-11-04T05:41:50.277Z,7.74
2017-11-04T05:42:51.689Z,7.94
2017-11-04T05:43:53.101Z,8.00
2017-11-04T05:44:54.526Z,7.85
2017-11-04T05:45:55.940Z,7.87
2017-11-04T05:46:57.352Z,7.82
2017-11-04T05:47:58.756Z,7.78
2017-11-04T05:49:00.168Z,7.99
2017-11-04T05:50:01.591Z,7.97
2017-11-04T05:51:03.025Z,8.02
2017-11-04T05:52:04.411Z,8.02
2017-11-04T05:53:05.820Z,8.12
2017-11-04T05:54:07.225Z,8.10
2017-11-04T05:55:08.638Z,8.10
2017-11-04T05:56:10.047Z,8.18
2017-11-04T05:57:11.461Z,8.29
2017-11-04T05:58:12.876Z,8.26
2017-11-04T05:59:14.292Z,8.37
2017-11-04T06:00:15.712Z,8.25
2017-11-04T06:01:17.122Z,8.26
2017-11-04T06:02:18.535Z,8.36
2017-11-04T06:03:19.952Z,8.42
2017-11-04T06:04:21.372Z,8.44
2017-11-04T06:05:22.854Z,8.36
2017-11-04T06:06:24.224Z,8.48
2017-11-04T06:07:25.634Z,8.45
2017-11-04T06:08:27.046Z,8.40
2017-11-04T06:09:28.470Z,8.55
2017-11-04T06:10:29.872Z,8.54
2017-11-04T06:11:31.285Z,8.36
2017-11-04T06:12:32.705Z,8.42
2017-11-04T06:13:34.110Z,8.45
2017-11-04T06:14:35.533Z,8.44
2017-11-04T06:15:36.948Z,8.44
2017-11-04T06:16:38.359Z,8.44
2017-11-04T06:17:39.774Z,8.47
2017-11-04T06:18:41.179Z,8.37
2017-11-04T06:19:42.597Z,8.15
2017-11-04T06:20:44.012Z,8.08
2017-11-04T06:21:45.427Z,8.18
2017-11-04T06:22:46.878Z,8.04
2017-11-04T06:23:48.295Z,8.03
2017-11-04T06:24:49.706Z,8.21
2017-11-04T06:25:51.126Z,8.29
2017-11-04T06:26:52.531Z,8.32
2017-11-04T06:27:53.949Z,8.42
2017-11-04T06:28:55.366Z,8.45
2017-11-04T06:29:56.797Z,8.60
2017-11-04T06:30:58.206Z,8.66
2017-11-04T06:31:59.614Z,8.44
2017-11-04T06:33:01.033Z,8.66
2017-11-04T06:34:02.454Z,8.62
2017-11-04T06:35:03.864Z,8.54
2017-11-04T06:36:05.271Z,8.60
2017-11-04T06:37:06.690Z,8.72
2017-11-04T06:38:08.100Z,8.62
2017-11-04T06:39:09.515Z,8.55
2017-11-04T06:40:10.934Z,8.60
2017-11-04T06:41:12.339Z,8.51
2017-11-04T06:42:13.754Z,8.36
2017-11-04T06:43:15.273Z,8.35
2017-11-04T06:44:16.698Z,8.29
2017-11-04T06:45:18.152Z,8.17
2017-11-04T06:46:19.561Z,7.97
2017-11-04T06:47:20.983Z,7.89
2017-11-04T06:48:22.461Z,8.21
2017-11-04T06:49:23.888Z,8.39
2017-11-04T06:50:25.308Z,8.53
2017-11-04T06:51:26.724Z,8.55
2017-11-04T06:52:28.148Z,8.53
2017-11-04T06:53:29.562Z,8.54
2017-11-04T06:54:30.973Z,8.63
2017-11-04T06:55:32.396Z,8.45
2017-11-04T06:56:33.813Z,8.54
2017-11-04T06:57:35.228Z,8.62
2017-11-04T06:58:36.643Z,8.54
2017-11-04T06:59:38.058Z,8.51
2017-11-04T07:00:39.477Z,8.45
2017-11-04T07:01:40.890Z,8.65
2017-11-04T07:02:42.305Z,8.81
2017-11-04T07:03:43.727Z,8.53
2017-11-04T07:04:45.141Z,8.66
2017-11-04T07:05:46.555Z,8.71
2017-11-04T07:06:47.973Z,8.72
2017-11-04T07:07:49.420Z,8.54
2017-11-04T07:08:50.839Z,8.54
2017-11-04T07:09:52.253Z,8.69
2017-11-04T07:10:53.743Z,8.69
2017-11-04T07:11:55.163Z,8.68
2017-11-04T07:12:56.707Z,8.76
2017-11-04T07:13:58.128Z,8.87
2017-11-04T07:14:59.553Z,8.94
2017-11-04T07:16:00.965Z,8.88
2017-11-04T07:17:02.381Z,8.69
2017-11-04T07:18:03.793Z,8.44
2017-11-04T07:19:05.210Z,8.44
2017-11-04T07:20:06.637Z,8.47
2017-11-04T07:21:08.050Z,8.55
2017-11-04T07:22:09.467Z,8.73
2017-11-04T07:23:10.880Z,8.87
2017-11-04T07:24:12.299Z,8.73
2017-11-04T07:25:13.728Z,8.76
2017-11-04T07:26:15.146Z,8.90
2017-11-04T07:27:16.577Z,8.63
2017-11-04T07:28:17.985Z,8.69
2017-11-04T07:29:19.406Z,8.66
2017-11-04T07:30:20.822Z,8.84
2017-11-04T07:31:22.245Z,9.01
2017-11-04T07:32:23.661Z,9.16
2017-11-04T07:33:25.075Z,9.06
2017-11-04T07:34:26.494Z,9.05
2017-11-04T07:35:27.918Z,9.06
2017-11-04T07:36:29.350Z,9.16
2017-11-04T07:37:30.769Z,9.31
2017-11-04T07:38:32.188Z,9.42
2017-11-04T07:39:34.517Z,9.31
2017-11-04T07:40:35.954Z,9.46
2017-11-04T07:41:37.367Z,9.42
2017-11-04T07:42:38.807Z,9.43
2017-11-04T07:43:40.226Z,9.43
2017-11-04T07:44:41.649Z,9.32
2017-11-04T07:45:43.054Z,9.27
2017-11-04T07:46:44.478Z,9.16
2017-11-04T07:47:45.895Z,9.24
2017-11-04T07:48:47.308Z,9.34
2017-11-04T07:49:48.746Z,9.34
2017-11-04T07:50:50.171Z,9.34
2017-11-04T07:51:58.398Z,9.50
2017-11-04T07:53:00.001Z,9.46
2017-11-04T07:54:01.407Z,9.61
2017-11-04T07:55:02.820Z,9.68
2017-11-04T07:56:04.240Z,9.61
2017-11-04T07:57:05.668Z,9.64
2017-11-04T07:58:07.086Z,9.63
2017-11-04T07:59:08.514Z,9.45
2017-11-04T08:00:09.927Z,9.46
2017-11-04T08:01:11.347Z,9.40
2017-11-04T08:02:12.759Z,9.40
2017-11-04T08:03:14.186Z,9.66
2017-11-04T08:04:15.608Z,9.79
2017-11-04T08:05:17.036Z,9.68
2017-11-04T08:06:18.449Z,9.48
2017-11-04T08:07:19.863Z,9.38
2017-11-04T08:08:21.280Z,9.48
2017-11-04T08:09:22.703Z,9.60
2017-11-04T08:10:24.124Z,9.61
2017-11-04T08:11:25.542Z,9.45
2017-11-04T08:12:26.958Z,9.42
2017-11-04T08:13:28.383Z,9.52
2017-11-04T08:14:29.806Z,9.73
2017-11-04T08:15:31.228Z,9.83
2017-11-04T08:16:32.646Z,9.76
2017-11-04T08:17:34.063Z,9.88
2017-11-04T08:18:35.488Z,9.85
2017-11-04T08:19:36.899Z,9.93
2017-11-04T08:20:38.322Z,10.19
2017-11-04T08:21:39.740Z,10.25
2017-11-04T08:22:41.166Z,10.37
2017-11-04T08:23:42.583Z,10.44
2017-11-04T08:24:44.000Z,10.73
2017-11-04T08:25:45.408Z,10.76
2017-11-04T08:26:46.831Z,10.88
2017-11-04T08:27:48.252Z,11.03
2017-11-04T08:28:49.665Z,11.21
2017-11-04T08:29:51.097Z,11.28
2017-11-04T08:30:52.508Z,11.34
2017-11-04T08:31:53.928Z,11.28
2017-11-04T08:32:55.368Z,11.28
2017-11-04T08:33:56.788Z,11.29
2017-11-04T08:34:58.221Z,11.34
2017-11-04T08:35:59.651Z,11.36
2017-11-04T08:37:01.071Z,11.28
2017-11-04T08:38:02.495Z,11.34
2017-11-04T08:39:03.907Z,11.31
2017-11-04T08:40:05.330Z,11.36
2017-11-04T08:41:06.749Z,11.47
2017-11-04T08:42:08.179Z,11.50
2017-11-04T08:43:09.602Z,11.49
2017-11-04T08:44:11.055Z,11.54
2017-11-04T08:45:12.477Z,11.49
2017-11-04T08:46:13.902Z,11.47
2017-11-04T08:47:15.321Z,11.59
2017-11-04T08:48:16.741Z,11.57
2017-11-04T08:49:18.164Z,11.74
2017-11-04T08:50:19.590Z,11.80
2017-11-04T08:51:21.010Z,11.89
2017-11-04T08:52:22.427Z,11.80
2017-11-04T08:53:23.843Z,11.93
2017-11-04T08:54:25.261Z,11.93
2017-11-04T08:55:26.677Z,11.93
2017-11-04T08:56:28.068Z,11.96
2017-11-04T08:57:29.481Z,11.80
2017-11-04T08:58:30.909Z,12.02
2017-11-04T08:59:32.327Z,12.42
2017-11-04T09:00:33.749Z,12.38
2017-11-04T09:01:35.179Z,12.56
2017-11-04T09:02:36.593Z,12.51
2017-11-04T09:03:38.011Z,12.16
2017-11-04T09:04:39.451Z,12.33
2017-11-04T09:05:40.875Z,12.31
2017-11-04T09:06:42.380Z,12.27
2017-11-04T09:07:43.802Z,12.19
2017-11-04T09:08:45.335Z,12.21
2017-11-04T09:09:46.780Z,12.23
2017-11-04T09:10:48.187Z,12.27
2017-11-04T09:11:49.633Z,12.19
2017-11-04T09:12:51.058Z,12.34
2017-11-04T09:13:52.476Z,12.46
2017-11-04T09:14:53.899Z,12.60
2017-11-04T09:15:55.293Z,12.56
2017-11-04T09:16:56.718Z,12.57
2017-11-04T09:17:58.152Z,12.69
2017-11-04T09:18:59.581Z,12.75
2017-11-04T09:20:01.016Z,12.81
2017-11-04T09:21:02.443Z,12.77
2017-11-04T09:22:03.880Z,12.77
2017-11-04T09:23:05.280Z,12.88
2017-11-04T09:24:06.709Z,12.84
2017-11-04T09:25:08.130Z,12.97
2017-11-04T09:26:09.560Z,12.75
2017-11-04T09:27:10.990Z,12.87
2017-11-04T09:28:12.417Z,12.93
2017-11-04T09:29:13.840Z,12.78
2017-11-04T09:30:15.221Z,12.88
2017-11-04T09:31:16.650Z,12.89
2017-11-04T09:32:18.077Z,12.92
2017-11-04T09:33:19.512Z,12.75
2017-11-04T09:34:20.982Z,12.97
2017-11-04T09:35:22.408Z,12.89
2017-11-04T09:36:23.853Z,12.77
2017-11-04T09:37:25.285Z,12.88
2017-11-04T09:38:26.807Z,12.71
2017-11-04T09:39:28.229Z,12.79
2017-11-04T09:40:29.653Z,12.79
2017-11-04T09:41:31.073Z,12.78
2017-11-04T09:42:32.498Z,12.93
2017-11-04T09:43:33.928Z,12.93
2017-11-04T09:44:35.357Z,12.93
2017-11-04T09:45:36.778Z,13.07
2017-11-04T09:46:38.193Z,13.17
2017-11-04T09:47:39.629Z,13.00
2017-11-04T09:48:41.046Z,13.07
2017-11-04T09:49:42.464Z,13.40
2017-11-04T09:50:43.897Z,13.33
2017-11-04T09:51:45.321Z,13.38
2017-11-04T09:52:46.740Z,13.46
2017-11-04T09:53:48.166Z,13.49
2017-11-04T09:54:49.589Z,13.51
2017-11-04T09:55:51.645Z,13.47
2017-11-04T09:56:53.063Z,13.07
2017-11-04T09:57:54.483Z,13.17
2017-11-04T09:58:55.900Z,13.18
2017-11-04T09:59:57.327Z,13.02
2017-11-04T10:00:58.757Z,13.21
2017-11-04T10:02:00.173Z,13.21
2017-11-04T10:03:01.601Z,13.30
2017-11-04T10:04:03.016Z,13.15
2017-11-04T10:05:04.467Z,13.15
2017-11-04T10:06:05.888Z,13.02
2017-11-04T10:07:07.309Z,12.95
2017-11-04T10:08:08.742Z,12.92
2017-11-04T10:09:10.152Z,12.81
2017-11-04T10:10:11.580Z,12.93
2017-11-04T10:11:13.003Z,12.92
2017-11-04T10:12:14.431Z,12.89
2017-11-04T10:13:15.858Z,13.03
2017-11-04T10:14:17.298Z,13.11
2017-11-04T10:15:18.722Z,13.03
2017-11-04T10:16:20.143Z,12.92
2017-11-04T10:17:21.558Z,12.96
2017-11-04T10:18:22.989Z,12.97
2017-11-04T10:19:24.416Z,13.27
2017-11-04T10:20:25.848Z,13.43
2017-11-04T10:21:27.267Z,13.58
2017-11-04T10:22:28.699Z,13.51
2017-11-04T10:23:30.120Z,13.43
2017-11-04T10:24:31.542Z,13.52
2017-11-04T10:25:32.962Z,13.56
2017-11-04T10:26:34.401Z,13.61
2017-11-04T10:27:35.821Z,13.55
2017-11-04T10:28:37.237Z,13.40
2017-11-04T10:29:38.683Z,13.40
2017-11-04T10:30:40.101Z,13.51
2017-11-04T10:31:41.514Z,13.25
2017-11-04T10:32:42.939Z,13.41
2017-11-04T10:33:44.363Z,13.33
2017-11-04T10:34:45.791Z,13.43
2017-11-04T10:35:47.218Z,13.46
2017-11-04T10:36:48.645Z,13.63
2017-11-04T10:37:50.062Z,13.96
2017-11-04T10:38:51.501Z,13.89
2017-11-04T10:39:52.948Z,14.09
2017-11-04T10:40:54.374Z,14.52
2017-11-04T10:41:55.809Z,14.74
2017-11-04T10:42:57.234Z,14.34
2017-11-04T10:43:58.661Z,13.98
2017-11-04T10:45:00.093Z,14.10
2017-11-04T10:46:01.529Z,14.01
2017-11-04T10:47:02.942Z,14.24
2017-11-04T10:48:04.370Z,14.07
2017-11-04T10:49:05.807Z,14.21
2017-11-04T10:50:07.240Z,14.01
2017-11-04T10:51:08.661Z,13.96
2017-11-04T10:52:10.104Z,14.14
2017-11-04T10:53:11.516Z,14.20
2017-11-04T10:54:12.939Z,14.20
2017-11-04T10:55:14.363Z,14.20
2017-11-04T10:56:15.787Z,14.32
2017-11-04T10:57:17.210Z,14.35
2017-11-04T10:58:18.636Z,14.21
2017-11-04T10:59:20.064Z,14.46
2017-11-04T11:00:21.491Z,14.56
2017-11-04T11:01:22.931Z,14.62
2017-11-04T11:02:24.363Z,14.61
2017-11-04T11:03:25.789Z,14.61
2017-11-04T11:04:27.212Z,14.35
2017-11-04T11:05:28.630Z,14.46
2017-11-04T11:06:30.059Z,14.53
2017-11-04T11:07:31.482Z,14.62
2017-11-04T11:08:32.908Z,14.90
2017-11-04T11:09:34.294Z,15.06
2017-11-04T11:10:35.731Z,14.72
2017-11-04T11:11:37.162Z,14.69
2017-11-04T11:12:38.587Z,14.72
2017-11-04T11:13:40.019Z,14.42
2017-11-04T11:14:41.453Z,14.19
2017-11-04T11:15:42.877Z,14.32
2017-11-04T11:16:44.305Z,14.32
2017-11-04T11:17:45.729Z,14.35
2017-11-04T11:18:47.163Z,14.50
2017-11-04T11:19:48.592Z,14.75
2017-11-04T11:20:50.020Z,14.69
2017-11-04T11:21:51.439Z,14.87
2017-11-04T11:22:52.864Z,15.01
2017-11-04T11:23:54.284Z,15.02
2017-11-04T11:24:55.713Z,15.02
2017-11-04T11:25:57.142Z,15.27
2017-11-04T11:26:58.571Z,15.68
2017-11-04T11:27:59.990Z,16.16
2017-11-04T11:29:01.407Z,16.12
2017-11-04T11:30:02.831Z,15.97
2017-11-04T11:31:04.259Z,15.74
2017-11-04T11:32:05.684Z,15.64
2017-11-04T11:33:07.100Z,15.48
2017-11-04T11:34:08.532Z,15.27
2017-11-04T11:35:09.958Z,15.27
2017-11-04T11:36:11.446Z,15.02
2017-11-04T11:37:12.883Z,15.01
2017-11-04T11:38:14.311Z,15.01
2017-11-04T11:39:15.735Z,15.05
2017-11-04T11:40:17.163Z,15.19
2017-11-04T11:41:18.597Z,15.05
2017-11-04T11:42:20.016Z,14.94
2017-11-04T11:43:21.439Z,15.05
2017-11-04T11:44:22.863Z,15.17
2017-11-04T11:45:24.293Z,15.09
2017-11-04T11:46:25.715Z,15.19
2017-11-04T11:47:27.143Z,14.90
2017-11-04T11:48:28.567Z,15.15
2017-11-04T11:49:29.993Z,15.20
2017-11-04T11:50:31.421Z,15.15
2017-11-04T11:51:32.858Z,14.90
2017-11-04T11:52:34.284Z,15.23
2017-11-04T11:53:35.725Z,15.49
2017-11-04T11:54:37.146Z,15.81
2017-11-04T11:55:38.574Z,15.81
2017-11-04T11:56:39.999Z,17.04
2017-11-04T11:57:41.426Z,17.20
2017-11-04T11:58:42.847Z,17.04
2017-11-04T11:59:44.269Z,16.93
2017-11-04T12:00:45.695Z,17.07
2017-11-04T12:01:47.129Z,16.71
2017-11-04T12:02:48.604Z,16.49
2017-11-04T12:03:50.035Z,16.23
2017-11-04T12:04:51.450Z,16.06
2017-11-04T12:05:52.891Z,15.78
2017-11-04T12:06:54.317Z,15.74
2017-11-04T12:07:55.737Z,15.76
2017-11-04T12:08:57.162Z,15.79
2017-11-04T12:09:59.068Z,15.61
2017-11-04T12:11:01.748Z,15.72
2017-11-04T12:12:03.173Z,15.54
2017-11-04T12:13:04.598Z,15.52
2017-11-04T12:14:06.025Z,15.68
2017-11-04T12:15:07.464Z,15.63
2017-11-04T12:16:08.890Z,15.59
2017-11-04T12:17:10.319Z,15.72
2017-11-04T12:18:11.746Z,16.01
2017-11-04T12:19:13.171Z,17.70
2017-11-04T12:20:14.597Z,16.48
2017-11-04T12:21:16.029Z,16.00
2017-11-04T12:22:17.465Z,17.11
2017-11-04T12:23:18.884Z,16.85
2017-11-04T12:24:20.318Z,16.23
2017-11-04T12:25:21.749Z,16.71
2017-11-04T12:26:23.175Z,20.66
2017-11-04T12:27:24.599Z,23.47
2017-11-04T12:28:26.027Z,24.44
2017-11-04T12:29:27.452Z,24.68
2017-11-04T12:30:28.888Z,24.75
2017-11-04T12:31:30.317Z,25.39
2017-11-04T12:32:31.748Z,26.01
2017-11-04T12:33:33.178Z,25.35
2017-11-04T12:34:34.608Z,26.28
2017-11-04T12:35:36.041Z,26.39
2017-11-04T12:36:37.468Z,25.28
2017-11-04T12:37:38.901Z,25.87
2017-11-04T12:38:40.328Z,25.64
2017-11-04T12:39:41.755Z,25.93
2017-11-04T12:40:43.187Z,26.17
2017-11-04T12:41:44.614Z,26.35
2017-11-04T12:42:46.052Z,26.05
2017-11-04T12:43:47.489Z,27.04
2017-11-04T12:44:48.922Z,26.65
2017-11-04T12:45:50.349Z,27.04
2017-11-04T12:46:51.782Z,26.52
2017-11-04T12:47:53.219Z,27.50
2017-11-04T12:48:54.652Z,26.86
2017-11-04T12:49:56.087Z,26.50
2017-11-04T12:50:57.526Z,25.27
2017-11-04T12:51:58.977Z,23.87
2017-11-04T12:53:00.415Z,23.75
2017-11-04T12:54:01.856Z,23.17
2017-11-04T12:55:03.287Z,22.12
2017-11-04T12:56:04.732Z,20.61
2017-11-04T12:57:06.163Z,21.16
2017-11-04T12:58:07.597Z,20.49
2017-11-04T12:59:09.028Z,21.30
2017-11-04T13:00:10.451Z,21.78
2017-11-04T13:01:11.882Z,23.75
2017-11-04T13:02:14.084Z,25.79
2017-11-04T13:03:14.726Z,25.42
2017-11-04T13:04:16.158Z,24.17
2017-11-04T13:05:17.594Z,24.88
2017-11-04T13:06:19.032Z,24.83
2017-11-04T13:07:20.467Z,22.78
2017-11-04T13:08:21.916Z,22.86
2017-11-04T13:09:23.353Z,22.71
2017-11-04T13:10:24.786Z,23.52
2017-11-04T13:11:26.216Z,23.79
2017-11-04T13:12:27.613Z,23.31
2017-11-04T13:13:29.048Z,23.38
2017-11-04T13:14:30.493Z,23.70
2017-11-04T13:15:31.926Z,21.91
2017-11-04T13:16:33.355Z,23.68
2017-11-04T13:17:34.800Z,23.80
2017-11-04T13:18:36.220Z,23.87
2017-11-04T13:19:37.654Z,22.92
2017-11-04T13:20:39.099Z,22.14
2017-11-04T13:21:40.532Z,22.27
2017-11-04T13:22:42.055Z,22.84
2017-11-04T13:23:43.501Z,21.99
2017-11-04T13:24:44.933Z,22.75
2017-11-04T13:25:46.371Z,23.57
2017-11-04T13:26:47.798Z,24.92
2017-11-04T13:27:49.245Z,25.77
2017-11-04T13:28:50.675Z,25.98